Time;durP1;ratioP1;P1;durP2;ratioP2;P2;SDS_P1;SDS_P2;PMS_P1;PMS_P2;Temp;Humidity;BMP_temperature;BMP_pressure;BME280_temperature;BME280_humidity;BME280_pressure;Samples;Min_cycle;Max_cycle;Signal;HPM_P1;HPM_P2
2024/04/05 00:01:48;;;;;;;7.05;2.17;;;30.60;33.70;;;;;;5009726;28;20062;-55
2024/04/05 00:04:15;;;;;;;12.60;2.75;;;30.50;33.40;;;;;;5010164;28;20074;-54
2024/04/05 00:06:41;;;;;;;10.73;2.45;;;30.50;33.80;;;;;;5010380;28;20098;-55
2024/04/05 00:09:08;;;;;;;8.38;1.88;;;30.60;33.50;;;;;;5011412;28;20073;-53
2024/04/05 00:11:34;;;;;;;11.43;2.10;;;30.60;33.10;;;;;;4992764;28;20075;-54
2024/04/05 00:14:01;;;;;;;6.55;1.92;;;30.60;32.60;;;;;;5009239;28;20067;-54
2024/04/05 00:16:28;;;;;;;5.40;1.80;;;30.40;32.90;;;;;;4992605;28;20073;-56
2024/04/05 00:18:55;;;;;;;67.15;4.65;;;30.20;34.80;;;;;;5010427;28;20066;-59
2024/04/05 00:21:22;;;;;;;29.75;3.67;;;29.60;39.00;;;;;;5010016;28;20110;-59
2024/04/05 00:23:54;;;;;;;36.60;3.95;;;29.20;40.80;;;;;;4990987;28;20637;-59
2024/04/05 00:26:20;;;;;;;36.45;3.80;;;28.90;42.10;;;;;;5009714;28;20114;-54
2024/04/05 00:28:47;;;;;;;37.80;3.28;;;28.50;43.10;;;;;;5008984;28;20169;-58
2024/04/05 00:31:13;;;;;;;46.08;4.13;;;28.20;43.10;;;;;;5010512;28;20201;-58
2024/04/05 00:33:40;;;;;;;41.03;4.70;;;28.00;44.30;;;;;;5008457;28;20742;-58
2024/04/05 00:36:06;;;;;;;42.92;3.92;;;27.50;45.30;;;;;;5009164;28;20066;-53
2024/04/05 00:38:33;;;;;;;68.68;5.63;;;27.10;46.30;;;;;;4993462;28;20202;-55
2024/04/05 00:40:59;;;;;;;50.45;5.18;;;26.60;46.80;;;;;;5010442;28;20074;-55
2024/04/05 00:43:26;;;;;;;42.25;3.95;;;26.40;47.40;;;;;;5010637;28;20117;-56
2024/04/05 00:45:53;;;;;;;37.80;3.33;;;26.30;47.40;;;;;;5008739;28;20066;-58
2024/04/05 00:48:21;;;;;;;34.20;3.67;;;26.40;46.20;;;;;;5007542;28;20063;-57
2024/04/05 00:50:51;;;;;;;39.90;3.80;;;26.30;45.80;;;;;;5005886;28;20063;-54
2024/04/05 00:53:31;;;;;;;33.35;3.95;;;26.20;45.20;;;;;;5007345;28;20073;-58
2024/04/05 00:55:59;;;;;;;28.35;3.13;;;25.90;44.60;;;;;;5006559;28;20070;-55
2024/04/05 00:58:26;;;;;;;30.02;2.83;;;25.80;44.30;;;;;;5008586;28;20070;-55
2024/04/05 01:00:53;;;;;;;27.05;3.20;;;25.70;43.90;;;;;;5007887;28;20086;-58
2024/04/05 01:03:21;;;;;;;46.58;5.03;;;25.60;43.90;;;;;;5007395;28;20405;-52
2024/04/05 01:05:48;;;;;;;33.40;3.67;;;25.40;43.30;;;;;;5007086;28;20161;-57
2024/04/05 01:08:16;;;;;;;47.50;4.05;;;25.40;43.50;;;;;;4990936;28;20102;-57
2024/04/05 01:10:43;;;;;;;42.67;4.10;;;25.20;42.90;;;;;;5009073;28;20563;-57
2024/04/05 01:13:12;;;;;;;52.95;4.80;;;24.90;43.20;;;;;;5008283;28;20087;-58
2024/04/05 01:15:39;;;;;;;31.50;3.47;;;24.90;43.80;;;;;;5009472;28;20067;-56
2024/04/05 01:18:10;;;;;;;55.30;5.75;;;24.90;43.70;;;;;;5007392;28;20106;-56
2024/04/05 01:20:38;;;;;;;55.83;4.30;;;25.20;43.70;;;;;;5008501;28;20096;-56
2024/04/05 01:23:11;;;;;;;47.63;4.70;;;25.20;43.60;;;;;;5007703;28;20091;-58
2024/04/05 01:25:38;;;;;;;71.43;5.25;;;24.70;44.20;;;;;;5007983;28;20125;-56
2024/04/05 01:28:12;;;;;;;92.95;7.03;;;24.40;44.60;;;;;;5009167;28;20102;-55
2024/04/05 01:30:39;;;;;;;50.95;5.43;;;24.10;44.90;;;;;;5008111;28;20081;-59
2024/04/05 01:33:06;;;;;;;46.90;4.05;;;23.90;45.30;;;;;;5008598;28;20098;-58
2024/04/05 01:35:33;;;;;;;37.63;4.10;;;23.70;46.00;;;;;;5007931;28;20075;-58
2024/04/05 01:38:00;;;;;;;43.17;4.45;;;23.60;46.20;;;;;;5008941;28;20544;-56
2024/04/05 01:40:27;;;;;;;61.20;4.82;;;23.60;46.30;;;;;;5007428;28;20067;-56
2024/04/05 01:42:54;;;;;;;54.10;4.10;;;23.50;46.60;;;;;;5007173;28;20134;-58
2024/04/05 01:45:21;;;;;;;62.15;4.63;;;23.30;46.90;;;;;;5008578;28;20078;-57
2024/04/05 01:47:48;;;;;;;45.40;4.72;;;23.10;47.00;;;;;;4991289;28;20205;-56
2024/04/05 01:50:15;;;;;;;51.58;4.60;;;23.10;47.30;;;;;;5007081;28;20120;-53
2024/04/05 01:52:42;;;;;;;42.33;4.45;;;23.00;47.20;;;;;;5008643;28;20070;-57
2024/04/05 01:55:08;;;;;;;66.45;6.32;;;22.90;46.80;;;;;;5007319;28;20124;-57
2024/04/05 01:57:36;;;;;;;45.58;4.22;;;22.80;46.80;;;;;;5009222;28;20082;-56
2024/04/05 02:00:05;;;;;;;57.40;5.50;;;22.70;46.60;;;;;;5008853;28;20473;-55
2024/04/05 02:02:32;;;;;;;27.95;4.05;;;22.70;47.00;;;;;;5008538;28;20128;-57
2024/04/05 02:04:59;;;;;;;43.22;4.55;;;22.60;46.60;;;;;;5008654;28;21804;-56
2024/04/05 02:07:29;;;;;;;32.47;4.13;;;22.60;46.70;;;;;;5004424;28;20138;-57
2024/04/05 02:09:56;;;;;;;30.63;3.80;;;22.50;46.60;;;;;;5008578;28;20116;-59
2024/04/05 02:12:24;;;;;;;37.35;3.80;;;22.40;46.80;;;;;;5007579;28;20525;-52
2024/04/05 02:14:51;;;;;;;18.60;2.88;;;22.30;46.90;;;;;;5007888;28;20071;-56
2024/04/05 02:17:17;;;;;;;33.15;3.10;;;22.30;47.10;;;;;;5006794;28;20150;-56
2024/04/05 02:19:45;;;;;;;15.55;2.38;;;22.20;47.50;;;;;;5008735;28;20129;-55
2024/04/05 02:22:11;;;;;;;63.65;5.00;;;22.10;47.90;;;;;;5007381;28;20081;-56
2024/04/05 02:24:38;;;;;;;30.40;3.50;;;22.00;47.90;;;;;;5008465;28;20078;-60
2024/04/05 02:27:05;;;;;;;24.30;3.10;;;22.00;48.20;;;;;;4990224;28;20149;-58
2024/04/05 02:29:33;;;;;;;24.52;3.03;;;21.80;50.80;;;;;;5007757;28;20071;-61
2024/04/05 02:32:00;;;;;;;17.50;2.28;;;21.50;52.60;;;;;;5014661;28;20066;-59
2024/04/05 02:34:26;;;;;;;24.52;3.03;;;21.30;54.20;;;;;;5013993;28;20085;-58
2024/04/05 02:36:53;;;;;;;13.15;2.15;;;21.20;54.00;;;;;;5012964;28;20070;-58
2024/04/05 02:39:20;;;;;;;25.65;3.35;;;21.10;54.00;;;;;;5014376;28;20077;-54
2024/04/05 02:41:46;;;;;;;37.35;3.70;;;21.00;53.60;;;;;;5014005;28;20070;-56
2024/04/05 02:44:14;;;;;;;40.50;4.10;;;21.10;53.30;;;;;;5012951;28;20122;-57
2024/04/05 02:46:40;;;;;;;40.65;3.30;;;21.10;52.80;;;;;;5012728;28;20181;-56
2024/04/05 02:49:07;;;;;;;24.35;2.10;;;21.20;52.60;;;;;;5013050;28;20090;-55
2024/04/05 02:51:35;;;;;;;16.92;2.22;;;21.10;52.20;;;;;;5013107;28;20106;-56
2024/04/05 02:54:02;;;;;;;15.15;1.70;;;21.10;52.20;;;;;;5013533;28;20071;-54
2024/04/05 02:56:29;;;;;;;16.08;2.60;;;21.10;52.40;;;;;;5014760;28;21050;-56
2024/04/05 02:58:56;;;;;;;18.92;2.35;;;20.90;53.10;;;;;;5014773;28;20252;-56
2024/04/05 03:01:24;;;;;;;32.65;3.20;;;20.70;53.40;;;;;;5014474;28;20095;-51
2024/04/05 03:03:50;;;;;;;28.30;3.97;;;20.70;53.40;;;;;;5013668;28;20066;-55
2024/04/05 03:06:20;;;;;;;35.97;4.03;;;20.70;53.40;;;;;;5013443;28;20114;-58
2024/04/05 03:08:46;;;;;;;42.20;5.30;;;20.60;54.50;;;;;;5013387;28;20124;-54
2024/04/05 03:11:13;;;;;;;83.57;5.80;;;20.40;54.30;;;;;;5014728;28;20477;-57
2024/04/05 03:13:41;;;;;;;69.45;5.18;;;20.30;54.60;;;;;;5013974;28;20431;-58
2024/04/05 03:16:07;;;;;;;48.58;4.88;;;20.30;54.80;;;;;;4996738;28;20517;-55
2024/04/05 03:18:34;;;;;;;47.58;4.45;;;20.10;55.00;;;;;;5013940;28;20074;-56
2024/04/05 03:21:00;;;;;;;26.27;6.78;;;19.90;55.60;;;;;;5013460;28;20110;-52
2024/04/05 03:23:27;;;;;;;24.40;3.80;;;19.80;55.80;;;;;;5013536;28;21016;-55
2024/04/05 03:25:54;;;;;;;15.18;2.80;;;19.90;56.40;;;;;;5014022;28;20119;-57
2024/04/05 03:28:21;;;;;;;23.60;3.60;;;19.80;56.50;;;;;;5013417;28;20094;-54
2024/04/05 03:30:48;;;;;;;32.00;2.75;;;19.80;56.60;;;;;;4996785;28;20077;-55
2024/04/05 03:33:15;;;;;;;12.63;2.45;;;19.70;56.90;;;;;;5013096;28;20080;-56
2024/04/05 03:35:42;;;;;;;19.38;2.88;;;19.60;57.00;;;;;;5013967;28;20485;-58
2024/04/05 03:38:08;;;;;;;41.05;3.88;;;19.60;57.20;;;;;;5013334;28;20086;-56
2024/04/05 03:40:39;;;;;;;46.40;4.00;;;19.60;56.60;;;;;;5012519;28;20074;-49
2024/04/05 03:43:09;;;;;;;42.28;5.07;;;19.60;56.30;;;;;;5008552;28;20168;-58
2024/04/05 03:45:36;;;;;;;37.60;4.35;;;19.60;56.30;;;;;;5010222;28;20258;-58
2024/04/05 03:48:03;;;;;;;37.03;4.22;;;19.60;56.20;;;;;;5010250;28;20110;-58
2024/04/05 03:50:29;;;;;;;42.60;4.65;;;19.50;56.10;;;;;;5010973;28;20505;-58
2024/04/05 03:52:56;;;;;;;32.28;3.42;;;19.50;56.00;;;;;;5010764;28;20074;-57
2024/04/05 03:55:23;;;;;;;38.22;3.75;;;19.50;55.80;;;;;;5009560;28;20526;-54
2024/04/05 03:57:52;;;;;;;27.67;3.70;;;19.50;55.60;;;;;;5009303;28;20432;-57
2024/04/05 04:00:23;;;;;;;38.75;4.05;;;19.50;55.70;;;;;;5009838;28;20196;-56
2024/04/05 04:02:53;;;;;;;26.13;2.95;;;19.50;55.80;;;;;;5010345;28;20117;-55
2024/04/05 04:05:19;;;;;;;23.58;3.30;;;19.50;55.90;;;;;;5009889;28;20547;-54
2024/04/05 04:07:46;;;;;;;20.90;3.38;;;19.40;55.70;;;;;;5010128;28;20099;-56
2024/04/05 04:10:14;;;;;;;44.78;3.97;;;19.40;55.70;;;;;;5010783;28;20074;-58
2024/04/05 04:12:40;;;;;;;50.67;4.25;;;19.40;55.60;;;;;;5008000;28;20584;-55
2024/04/05 04:15:11;;;;;;;72.35;5.75;;;19.30;55.70;;;;;;5010729;28;20074;-54
2024/04/05 04:17:38;;;;;;;34.55;3.67;;;19.30;55.70;;;;;;5009669;28;20070;-56
2024/04/05 04:20:08;;;;;;;41.75;4.00;;;19.20;55.80;;;;;;5008484;28;20089;-56
2024/04/05 04:22:34;;;;;;;37.95;3.42;;;19.20;55.90;;;;;;5009800;28;20069;-57
2024/04/05 04:25:01;;;;;;;50.70;3.70;;;19.10;56.20;;;;;;5009639;28;20075;-56
2024/04/05 04:27:27;;;;;;;39.28;3.05;;;19.10;56.70;;;;;;4992482;28;20639;-56
2024/04/05 04:29:58;;;;;;;29.98;3.65;;;19.10;57.20;;;;;;4992812;28;20070;-51
2024/04/05 04:32:25;;;;;;;38.38;4.22;;;19.00;57.50;;;;;;5009568;28;20098;-55
2024/04/05 04:34:52;;;;;;;23.38;3.55;;;18.90;57.70;;;;;;5009893;28;20074;-59
2024/04/05 04:37:21;;;;;;;43.97;5.35;;;18.80;58.00;;;;;;5009008;28;20208;-60
2024/04/05 04:39:47;;;;;;;45.13;5.10;;;18.80;58.20;;;;;;5009139;28;20175;-48
2024/04/05 04:42:14;;;;;;;32.67;3.63;;;18.80;58.60;;;;;;5007254;28;20796;-57
2024/04/05 04:44:40;;;;;;;26.85;3.28;;;18.70;59.50;;;;;;5008694;28;20156;-53
2024/04/05 04:47:07;;;;;;;29.92;4.07;;;18.70;60.20;;;;;;5008939;28;20111;-55
2024/04/05 04:49:33;;;;;;;47.08;4.68;;;18.70;60.70;;;;;;4991231;28;20157;-50
2024/04/05 04:52:00;;;;;;;40.53;3.88;;;18.50;61.30;;;;;;4992007;28;20070;-51
2024/04/05 04:54:28;;;;;;;36.83;3.88;;;18.60;61.60;;;;;;5009358;28;20070;-55
2024/04/05 04:56:54;;;;;;;30.63;3.13;;;18.50;61.70;;;;;;4990293;28;20120;-58
2024/04/05 04:59:28;;;;;;;29.42;3.35;;;18.50;62.10;;;;;;4991827;28;20098;-53
2024/04/05 05:01:56;;;;;;;33.40;3.60;;;18.50;62.20;;;;;;4990784;28;20524;-56
2024/04/05 05:04:23;;;;;;;33.20;3.55;;;18.40;62.20;;;;;;5007249;28;20089;-56
2024/04/05 05:06:50;;;;;;;29.17;3.58;;;18.40;61.90;;;;;;5007800;28;20448;-53
2024/04/05 05:09:18;;;;;;;27.35;3.20;;;18.40;61.90;;;;;;5007179;28;20148;-52
2024/04/05 05:11:47;;;;;;;30.00;4.43;;;18.40;62.00;;;;;;5009406;28;20404;-53
2024/04/05 05:14:15;;;;;;;27.45;6.30;;;18.40;62.10;;;;;;5008078;28;20509;-54
2024/04/05 05:16:41;;;;;;;22.85;3.50;;;18.40;62.40;;;;;;5006109;28;20532;-58
2024/04/05 05:19:08;;;;;;;29.17;3.42;;;18.40;62.70;;;;;;5007375;28;20167;-52
2024/04/05 05:21:35;;;;;;;45.63;3.97;;;18.30;62.70;;;;;;5008006;28;20074;-52
2024/04/05 05:24:04;;;;;;;24.92;3.38;;;18.10;63.00;;;;;;5006115;28;20141;-51
2024/04/05 05:26:31;;;;;;;37.90;4.18;;;18.10;63.50;;;;;;5007382;28;20536;-53
2024/04/05 05:28:57;;;;;;;24.00;3.78;;;18.10;64.00;;;;;;5007060;28;20113;-52
2024/04/05 05:31:24;;;;;;;39.10;4.07;;;18.10;64.10;;;;;;5009217;28;20068;-59
2024/04/05 05:33:52;;;;;;;36.60;3.17;;;18.10;65.30;;;;;;5008412;28;20583;-55
2024/04/05 05:36:18;;;;;;;26.42;2.83;;;18.10;64.70;;;;;;4990581;28;20074;-51
2024/04/05 05:38:45;;;;;;;12.80;2.50;;;18.10;64.80;;;;;;5007573;28;20077;-54
2024/04/05 05:41:11;;;;;;;20.73;14.70;;;18.00;64.80;;;;;;5008298;28;20740;-57
2024/04/05 05:43:40;;;;;;;10.40;1.95;;;17.90;65.20;;;;;;5007505;28;20201;-57
2024/04/05 05:46:06;;;;;;;13.65;2.20;;;17.90;65.70;;;;;;5007106;28;20407;-59
2024/04/05 05:48:33;;;;;;;28.77;15.85;;;17.90;65.80;;;;;;5006797;28;20067;-56
2024/04/05 05:51:00;;;;;;;37.22;16.80;;;17.90;65.90;;;;;;5006816;28;20098;-59
2024/04/05 05:53:28;;;;;;;22.17;5.90;;;17.90;66.00;;;;;;5005611;28;20084;-54
2024/04/05 05:55:54;;;;;;;37.60;17.10;;;17.80;66.00;;;;;;5007636;28;20086;-57
2024/04/05 05:58:21;;;;;;;28.38;8.27;;;17.80;66.10;;;;;;5007389;28;20149;-54
2024/04/05 06:00:48;;;;;;;16.38;3.08;;;17.90;66.00;;;;;;5008749;28;20082;-59
2024/04/05 06:03:14;;;;;;;12.75;2.85;;;17.80;66.00;;;;;;5007350;28;20113;-56
2024/04/05 06:05:41;;;;;;;13.30;2.15;;;17.80;66.10;;;;;;4989902;28;20125;-57
2024/04/05 06:08:07;;;;;;;14.70;2.80;;;17.80;66.30;;;;;;5007618;28;20108;-59
2024/04/05 06:10:34;;;;;;;7.20;1.55;;;17.80;66.50;;;;;;5007426;28;20089;-57
2024/04/05 06:13:01;;;;;;;5.03;1.48;;;17.80;66.70;;;;;;4989798;28;20090;-55
2024/04/05 06:15:28;;;;;;;14.68;2.17;;;17.80;66.90;;;;;;5009070;28;20117;-58
2024/04/05 06:17:54;;;;;;;14.85;3.58;;;17.70;66.70;;;;;;4989397;28;20078;-57
2024/04/05 06:20:21;;;;;;;21.42;2.40;;;17.70;66.40;;;;;;5006729;28;20128;-52
2024/04/05 06:22:47;;;;;;;14.32;2.25;;;17.70;66.40;;;;;;5007017;28;20070;-56
2024/04/05 06:25:14;;;;;;;14.82;2.10;;;17.70;66.30;;;;;;5005267;28;20140;-58
2024/04/05 06:27:41;;;;;;;23.30;2.30;;;17.70;66.10;;;;;;4990406;28;20102;-55
2024/04/05 06:30:10;;;;;;;14.18;2.33;;;17.70;65.90;;;;;;4989237;28;20082;-54
2024/04/05 06:32:37;;;;;;;19.23;1.83;;;17.70;66.10;;;;;;5005503;28;20082;-58
2024/04/05 06:35:05;;;;;;;5.93;1.40;;;17.60;66.00;;;;;;5007508;28;20089;-55
2024/04/05 06:37:33;;;;;;;14.43;1.60;;;17.60;65.70;;;;;;5007107;28;20082;-59
2024/04/05 06:40:00;;;;;;;11.85;2.00;;;17.70;65.30;;;;;;4989073;28;20520;-50
2024/04/05 06:42:27;;;;;;;24.10;2.25;;;17.70;64.80;;;;;;5007378;28;20148;-52
2024/04/05 06:44:53;;;;;;;21.55;2.75;;;17.60;64.50;;;;;;5007025;28;20074;-54
2024/04/05 06:47:22;;;;;;;13.13;1.58;;;17.60;64.40;;;;;;5006898;28;20225;-50
2024/04/05 06:49:48;;;;;;;6.30;1.25;;;17.60;64.30;;;;;;5007124;28;20428;-56
2024/04/05 06:52:15;;;;;;;6.45;1.17;;;17.60;63.80;;;;;;5007365;28;20572;-57
2024/04/05 06:54:43;;;;;;;3.58;1.02;;;17.60;63.60;;;;;;5008742;28;20578;-57
2024/04/05 06:57:10;;;;;;;6.72;1.30;;;17.60;63.30;;;;;;5006468;28;20069;-57
2024/04/05 06:59:37;;;;;;;6.53;1.10;;;17.50;62.90;;;;;;5006981;28;20097;-55
2024/04/05 07:02:04;;;;;;;5.93;0.82;;;17.60;62.90;;;;;;5008146;28;20070;-58
2024/04/05 07:04:33;;;;;;;3.83;0.80;;;17.50;62.30;;;;;;5008033;28;20096;-57
2024/04/05 07:07:00;;;;;;;3.53;1.00;;;17.40;62.20;;;;;;5006332;28;20106;-57
2024/04/05 07:09:31;;;;;;;7.35;1.30;;;17.50;62.00;;;;;;5005942;28;20075;-56
2024/04/05 07:12:04;;;;;;;7.80;1.10;;;17.40;61.60;;;;;;5006266;28;20067;-54
2024/04/05 07:14:31;;;;;;;9.00;1.40;;;17.30;60.60;;;;;;5006509;28;20529;-60
2024/04/05 07:16:58;;;;;;;6.78;1.02;;;17.30;60.10;;;;;;5007144;28;20070;-53
2024/04/05 07:19:25;;;;;;;9.40;2.00;;;17.30;59.90;;;;;;5010320;28;20066;-58
2024/04/05 07:21:52;;;;;;;20.20;2.13;;;17.30;59.70;;;;;;5010127;28;20876;-57
2024/04/05 07:24:21;;;;;;;15.13;1.75;;;17.30;59.40;;;;;;5008994;28;20447;-56
2024/04/05 07:26:47;;;;;;;19.90;1.92;;;17.30;59.40;;;;;;5011306;28;20116;-59
2024/04/05 07:29:15;;;;;;;14.77;1.70;;;17.30;59.20;;;;;;5007600;28;20074;-59
2024/04/05 07:31:42;;;;;;;6.72;1.33;;;17.20;59.20;;;;;;5010791;28;20237;-53
2024/04/05 07:34:08;;;;;;;11.30;1.85;;;17.30;59.00;;;;;;5009676;28;20082;-58
2024/04/05 07:36:35;;;;;;;25.73;2.08;;;17.30;58.80;;;;;;5010556;28;20098;-56
2024/04/05 07:39:05;;;;;;;7.97;1.40;;;17.30;58.80;;;;;;4992184;28;20082;-58
2024/04/05 07:41:31;;;;;;;11.73;1.55;;;17.20;58.80;;;;;;4994162;28;20149;-56
2024/04/05 07:43:58;;;;;;;12.23;1.55;;;17.20;58.80;;;;;;5010116;28;20122;-54
2024/04/05 07:46:24;;;;;;;18.75;1.67;;;17.20;59.00;;;;;;5009420;28;20872;-58
2024/04/05 07:48:51;;;;;;;16.63;1.55;;;17.20;59.00;;;;;;5010768;28;20070;-57
2024/04/05 07:51:17;;;;;;;13.43;1.95;;;17.20;59.40;;;;;;5010499;28;20117;-59
2024/04/05 07:53:45;;;;;;;15.43;1.42;;;17.20;59.20;;;;;;5010605;28;20085;-56
2024/04/05 07:56:12;;;;;;;13.30;1.67;;;17.20;59.30;;;;;;5011559;28;20132;-57
2024/04/05 07:58:39;;;;;;;8.45;1.30;;;17.10;59.70;;;;;;5009770;28;20513;-57
2024/04/05 08:01:10;;;;;;;4.70;1.23;;;17.10;60.00;;;;;;5008612;28;20087;-57
2024/04/05 08:03:36;;;;;;;10.57;1.20;;;17.00;60.20;;;;;;5009520;28;20082;-54
2024/04/05 08:06:03;;;;;;;10.20;1.35;;;17.00;60.40;;;;;;5009955;28;20086;-53
2024/04/05 08:08:30;;;;;;;10.23;1.65;;;17.00;60.60;;;;;;5010595;28;20098;-59
2024/04/05 08:11:03;;;;;;;23.60;1.95;;;17.00;60.70;;;;;;5009700;28;20871;-56
2024/04/05 08:13:30;;;;;;;16.33;1.45;;;17.00;60.80;;;;;;4991552;28;20222;-59
2024/04/05 08:15:56;;;;;;;16.27;1.40;;;17.00;61.00;;;;;;5010138;28;20062;-57
2024/04/05 08:18:23;;;;;;;11.85;1.55;;;17.00;61.00;;;;;;5010312;28;20529;-57
2024/04/05 08:20:50;;;;;;;6.18;1.25;;;17.00;61.30;;;;;;5009463;28;20078;-56
2024/04/05 08:23:17;;;;;;;8.13;1.15;;;17.00;61.30;;;;;;5008850;28;20473;-56
2024/04/05 08:25:43;;;;;;;9.75;1.30;;;17.10;61.40;;;;;;5008285;28;20452;-52
2024/04/05 08:28:10;;;;;;;6.18;0.80;;;17.10;61.80;;;;;;5007662;28;20108;-57
2024/04/05 08:30:36;;;;;;;7.47;1.35;;;17.10;62.40;;;;;;5009972;28;20460;-57
2024/04/05 08:33:04;;;;;;;9.23;1.17;;;17.00;63.00;;;;;;5007626;28;20436;-58
2024/04/05 08:35:30;;;;;;;3.65;1.10;;;16.90;64.40;;;;;;5009577;28;20074;-56
2024/04/05 08:38:05;;;;;;;3.35;1.17;;;16.80;65.50;;;;;;5010358;28;20081;-58
2024/04/05 08:40:32;;;;;;;4.55;1.20;;;16.70;66.20;;;;;;5009017;28;20070;-52
2024/04/05 08:43:01;;;;;;;2.92;1.10;;;16.60;66.60;;;;;;5008152;28;20110;-54
2024/04/05 08:45:31;;;;;;;3.38;1.00;;;16.50;67.20;;;;;;5010314;28;20078;-57
2024/04/05 08:48:03;;;;;;;3.20;1.15;;;16.50;67.30;;;;;;5008797;28;20090;-55
2024/04/05 08:50:30;;;;;;;5.65;1.05;;;16.50;67.40;;;;;;5009314;28;20451;-58
2024/04/05 08:52:57;;;;;;;7.07;1.15;;;16.50;67.90;;;;;;5009301;28;20157;-53
2024/04/05 08:55:26;;;;;;;4.00;1.38;;;16.40;68.80;;;;;;5011521;28;20074;-57
2024/04/05 08:57:55;;;;;;;4.32;1.23;;;16.30;70.00;;;;;;5009330;28;20448;-58
2024/04/05 09:00:24;;;;;;;3.13;1.10;;;16.20;71.40;;;;;;5008886;28;20074;-54
2024/04/05 09:02:56;;;;;;;5.57;1.40;;;16.20;72.20;;;;;;5008185;28;20067;-55
2024/04/05 09:05:25;;;;;;;4.05;1.20;;;16.10;72.50;;;;;;5008624;28;20067;-56
2024/04/05 09:08:03;;;;;;;2.75;1.08;;;16.10;73.00;;;;;;5008679;28;20100;-57
2024/04/05 09:10:29;;;;;;;5.38;1.45;;;16.10;73.20;;;;;;5009207;28;20070;-57
2024/04/05 09:12:56;;;;;;;3.10;1.30;;;16.10;73.20;;;;;;5009081;28;20073;-56
2024/04/05 09:15:25;;;;;;;3.05;1.10;;;16.10;73.30;;;;;;5009639;28;20168;-57
2024/04/05 09:17:53;;;;;;;3.72;0.98;;;16.10;73.70;;;;;;5009212;28;20102;-55
2024/04/05 09:20:29;;;;;;;3.70;0.82;;;16.10;73.70;;;;;;5008154;28;20528;-56
2024/04/05 09:23:02;;;;;;;2.22;1.00;;;16.10;74.00;;;;;;4990544;28;20188;-56
2024/04/05 09:25:30;;;;;;;9.70;0.90;;;16.10;73.80;;;;;;5007320;28;20070;-54
2024/04/05 09:28:16;;;;;;;2.33;0.70;;;16.10;74.00;;;;;;5008606;28;20610;-61
2024/04/05 09:30:44;;;;;;;4.70;0.90;;;16.10;74.20;;;;;;5009248;28;20077;-55
2024/04/05 09:33:22;;;;;;;5.80;1.00;;;16.00;74.10;;;;;;4989195;28;20094;-57
2024/04/05 09:35:49;;;;;;;5.47;0.70;;;16.00;74.40;;;;;;5008947;28;20104;-56
2024/04/05 09:38:16;;;;;;;2.35;0.80;;;16.00;74.70;;;;;;5008237;28;20070;-58
2024/04/05 09:40:43;;;;;;;1.00;0.60;;;15.90;74.80;;;;;;5007178;28;20205;-55
2024/04/05 09:43:11;;;;;;;3.20;0.70;;;16.00;74.80;;;;;;5008554;28;20129;-57
2024/04/05 09:45:42;;;;;;;1.02;0.55;;;15.90;74.70;;;;;;5007803;28;20262;-58
2024/04/05 09:48:11;;;;;;;3.22;0.90;;;16.00;74.70;;;;;;5008795;28;20160;-55
2024/04/05 09:50:39;;;;;;;1.25;0.50;;;15.90;74.30;;;;;;5007797;28;20074;-56
2024/04/05 09:53:08;;;;;;;3.13;0.50;;;15.90;74.10;;;;;;5008200;28;20152;-56
2024/04/05 09:55:39;;;;;;;5.68;0.45;;;15.80;73.60;;;;;;5008378;28;20512;-56
2024/04/05 09:58:10;;;;;;;3.25;0.70;;;15.80;73.20;;;;;;5007068;28;20733;-56
2024/04/05 10:00:38;;;;;;;2.75;0.57;;;15.80;72.90;;;;;;4989497;28;20101;-58
2024/04/05 10:03:05;;;;;;;4.30;0.55;;;15.70;72.80;;;;;;5008443;28;20586;-57
2024/04/05 10:05:33;;;;;;;2.17;0.55;;;15.70;72.70;;;;;;5008191;28;20096;-61
2024/04/05 10:08:15;;;;;;;2.47;0.70;;;15.70;72.40;;;;;;5008144;28;20106;-53
2024/04/05 10:10:42;;;;;;;4.88;0.60;;;15.60;72.00;;;;;;5007789;28;20569;-57
2024/04/05 10:13:15;;;;;;;9.60;0.80;;;15.60;71.80;;;;;;5008653;28;20100;-56
2024/04/05 10:16:01;;;;;;;4.80;0.80;;;15.50;71.50;;;;;;5007614;28;20074;-59
2024/04/05 10:18:29;;;;;;;8.10;1.05;;;15.40;71.10;;;;;;4988715;28;20078;-58
2024/04/05 10:21:03;;;;;;;8.77;1.33;;;15.30;70.70;;;;;;5005823;28;20073;-56
2024/04/05 10:23:30;;;;;;;13.68;1.20;;;15.20;70.40;;;;;;5007762;28;20083;-58
2024/04/05 10:25:56;;;;;;;6.93;1.00;;;15.00;70.00;;;;;;5006178;28;20074;-55
2024/04/05 10:28:23;;;;;;;13.85;1.00;;;15.00;70.50;;;;;;5008337;28;20148;-57
2024/04/05 10:30:50;;;;;;;13.10;1.50;;;14.90;70.40;;;;;;5007660;28;20071;-54
2024/04/05 10:33:18;;;;;;;35.40;6.43;;;14.80;70.40;;;;;;5008437;28;20077;-57
2024/04/05 10:35:49;;;;;;;25.15;6.43;;;14.80;69.90;;;;;;5006895;28;20125;-55
2024/04/05 10:38:19;;;;;;;23.65;7.85;;;14.70;70.10;;;;;;4989360;28;20533;-57
2024/04/05 10:40:56;;;;;;;18.33;5.20;;;14.70;70.00;;;;;;5007454;28;20082;-55
2024/04/05 10:43:23;;;;;;;15.30;3.50;;;14.70;70.00;;;;;;5007262;28;20574;-55
2024/04/05 10:45:55;;;;;;;17.13;4.03;;;14.70;69.90;;;;;;5008266;28;20090;-54
2024/04/05 10:48:22;;;;;;;20.33;2.72;;;14.60;69.80;;;;;;5007186;28;20237;-57
2024/04/05 10:50:50;;;;;;;13.18;2.05;;;14.60;69.70;;;;;;5008241;28;20084;-58
2024/04/05 10:53:17;;;;;;;69.72;4.45;;;14.60;69.70;;;;;;5011792;28;20073;-57
2024/04/05 10:55:45;;;;;;;10.48;1.92;;;14.60;69.50;;;;;;5011551;28;20078;-54
2024/04/05 10:58:13;;;;;;;9.88;1.80;;;14.60;69.20;;;;;;4994780;28;20208;-54
2024/04/05 11:00:41;;;;;;;8.02;1.90;;;14.50;68.90;;;;;;5010779;28;20066;-59
2024/04/05 11:03:16;;;;;;;10.57;1.60;;;14.50;68.70;;;;;;5012115;28;20093;-59
2024/04/05 11:05:44;;;;;;;8.63;1.60;;;14.50;68.50;;;;;;5010406;28;20062;-54
2024/04/05 11:08:14;;;;;;;8.80;2.17;;;14.50;69.40;;;;;;5011257;28;20102;-55
2024/04/05 11:10:41;;;;;;;7.75;1.90;;;14.50;68.70;;;;;;5008772;28;20082;-55
2024/04/05 11:13:17;;;;;;;13.45;2.42;;;14.50;68.70;;;;;;5010429;28;20070;-56
2024/04/05 11:15:44;;;;;;;17.30;2.05;;;14.50;68.70;;;;;;5011949;28;20376;-55
2024/04/05 11:18:11;;;;;;;13.02;1.95;;;14.50;68.70;;;;;;5011528;28;20898;-57
2024/04/05 11:20:42;;;;;;;9.13;1.77;;;14.50;68.30;;;;;;5010396;28;20408;-58
2024/04/05 11:23:21;;;;;;;6.70;2.25;;;14.60;68.60;;;;;;5010468;28;20138;-55
2024/04/05 11:25:54;;;;;;;8.45;1.50;;;14.60;68.70;;;;;;5011292;28;20070;-56
2024/04/05 11:28:24;;;;;;;7.93;1.60;;;14.60;68.50;;;;;;5010950;28;20094;-54
2024/04/05 11:30:51;;;;;;;8.05;1.90;;;14.60;68.50;;;;;;5011448;28;20086;-56
2024/04/05 11:33:18;;;;;;;13.88;2.45;;;14.50;68.40;;;;;;5010879;28;20241;-58
2024/04/05 11:35:46;;;;;;;15.20;2.60;;;14.50;68.40;;;;;;4992262;28;20086;-56
2024/04/05 11:38:12;;;;;;;14.55;2.47;;;14.50;68.50;;;;;;5010337;28;20072;-59
2024/04/05 11:40:39;;;;;;;8.52;2.15;;;14.50;68.60;;;;;;5011159;28;20086;-59
2024/04/05 11:43:08;;;;;;;14.20;2.63;;;14.40;68.70;;;;;;5010531;28;20197;-53
2024/04/05 11:45:38;;;;;;;16.60;2.65;;;14.40;68.30;;;;;;5010009;28;20136;-62
2024/04/05 11:48:06;;;;;;;16.80;2.60;;;14.40;68.20;;;;;;5009245;28;20184;-57
2024/04/05 11:50:33;;;;;;;16.40;3.17;;;14.50;68.30;;;;;;5009194;28;20125;-57
2024/04/05 11:53:01;;;;;;;26.77;3.28;;;14.50;68.00;;;;;;4992510;28;20093;-59
2024/04/05 11:55:27;;;;;;;11.38;2.20;;;14.40;67.90;;;;;;5008519;28;20078;-55
2024/04/05 11:57:54;;;;;;;10.30;2.42;;;14.40;68.00;;;;;;5010294;28;20086;-58
2024/04/05 12:00:20;;;;;;;11.13;2.72;;;14.40;67.50;;;;;;5010290;28;20102;-56
2024/04/05 12:02:47;;;;;;;9.32;2.53;;;14.60;78.90;;;;;;5009552;28;20081;-58
2024/04/05 12:05:16;;;;;;;17.70;3.03;;;14.40;68.50;;;;;;5012189;28;20142;-56
2024/04/05 12:07:42;;;;;;;12.50;2.95;;;14.40;68.70;;;;;;5014551;28;20102;-57
2024/04/05 12:10:09;;;;;;;9.73;2.70;;;14.40;68.70;;;;;;5009658;28;20128;-59
2024/04/05 12:12:36;;;;;;;15.32;2.83;;;14.30;67.90;;;;;;5007879;28;20184;-58
2024/04/05 12:15:04;;;;;;;16.60;2.60;;;14.30;68.50;;;;;;5010592;28;20120;-57
2024/04/05 12:17:30;;;;;;;20.20;2.53;;;14.30;66.80;;;;;;5010433;28;20153;-57
2024/04/05 12:19:56;;;;;;;10.55;2.53;;;14.30;66.20;;;;;;5008892;28;20090;-60
2024/04/05 12:22:23;;;;;;;11.25;2.33;;;14.10;65.20;;;;;;5008478;28;20516;-59
2024/04/05 12:24:49;;;;;;;11.40;2.60;;;14.30;65.80;;;;;;5010493;28;20070;-59
2024/04/05 12:27:16;;;;;;;12.30;2.42;;;14.30;64.70;;;;;;4992852;28;20118;-58
2024/04/05 12:29:47;;;;;;;13.75;2.42;;;14.40;65.20;;;;;;5010933;28;20662;-57
2024/04/05 12:32:14;;;;;;;9.57;2.05;;;14.60;64.10;;;;;;5009234;28;20093;-58
2024/04/05 12:34:41;;;;;;;10.60;2.08;;;14.40;64.60;;;;;;5009254;28;20070;-58
2024/04/05 12:37:08;;;;;;;12.60;2.05;;;14.40;64.00;;;;;;5009274;28;20150;-57
2024/04/05 12:39:36;;;;;;;11.50;2.28;;;14.30;62.40;;;;;;5010130;28;20070;-60
2024/04/05 12:42:03;;;;;;;18.77;2.30;;;14.30;62.20;;;;;;4991450;28;20086;-58
2024/04/05 12:44:30;;;;;;;11.07;2.20;;;14.30;62.80;;;;;;5009651;28;20121;-57